sensor_id;sensor_type;location;lat;lon;timestamp;P1;durP1;ratioP1;P2;durP2;ratioP2
15944;SDS011;30172;48.832;8.732;2023-03-01T00:01:10;19.80;;;13.00;;
15944;SDS011;30172;48.832;8.732;2023-03-01T00:03:37;21.20;;;14.03;;
15944;SDS011;30172;48.832;8.732;2023-03-01T00:06:02;21.40;;;13.70;;
15944;SDS011;30172;48.832;8.732;2023-03-01T00:08:28;22.77;;;13.20;;
15944;SDS011;30172;48.832;8.732;2023-03-01T00:11:14;19.63;;;13.23;;
15944;SDS011;30172;48.832;8.732;2023-03-01T00:13:43;20.30;;;13.50;;
15944;SDS011;30172;48.832;8.732;2023-03-01T00:16:10;21.57;;;13.60;;
15944;SDS011;30172;48.832;8.732;2023-03-01T00:18:37;19.33;;;13.03;;
15944;SDS011;30172;48.832;8.732;2023-03-01T00:21:03;22.73;;;13.70;;
15944;SDS011;30172;48.832;8.732;2023-03-01T00:23:28;18.60;;;13.47;;
15944;SDS011;30172;48.832;8.732;2023-03-01T00:25:53;28.90;;;15.50;;
15944;SDS011;30172;48.832;8.732;2023-03-01T00:28:19;21.77;;;13.70;;
15944;SDS011;30172;48.832;8.732;2023-03-01T00:30:45;22.23;;;13.73;;
15944;SDS011;30172;48.832;8.732;2023-03-01T00:33:11;22.20;;;14.33;;
15944;SDS011;30172;48.832;8.732;2023-03-01T00:35:36;19.60;;;13.70;;
15944;SDS011;30172;48.832;8.732;2023-03-01T00:38:02;23.53;;;13.80;;
15944;SDS011;30172;48.832;8.732;2023-03-01T00:40:28;22.80;;;13.50;;
15944;SDS011;30172;48.832;8.732;2023-03-01T00:42:54;21.33;;;14.07;;
15944;SDS011;30172;48.832;8.732;2023-03-01T00:45:20;21.20;;;14.27;;
15944;SDS011;30172;48.832;8.732;2023-03-01T00:47:45;21.10;;;13.70;;
15944;SDS011;30172;48.832;8.732;2023-03-01T00:50:11;20.27;;;14.30;;
15944;SDS011;30172;48.832;8.732;2023-03-01T00:52:37;25.83;;;15.27;;
15944;SDS011;30172;48.832;8.732;2023-03-01T00:55:03;22.97;;;14.13;;
15944;SDS011;30172;48.832;8.732;2023-03-01T00:57:29;26.70;;;14.90;;
15944;SDS011;30172;48.832;8.732;2023-03-01T00:59:54;21.80;;;14.60;;
15944;SDS011;30172;48.832;8.732;2023-03-01T01:02:20;20.60;;;14.10;;
15944;SDS011;30172;48.832;8.732;2023-03-01T01:04:45;19.47;;;13.53;;
15944;SDS011;30172;48.832;8.732;2023-03-01T01:07:11;22.90;;;14.90;;
15944;SDS011;30172;48.832;8.732;2023-03-01T01:09:37;23.87;;;15.27;;
15944;SDS011;30172;48.832;8.732;2023-03-01T01:12:02;20.73;;;13.90;;
15944;SDS011;30172;48.832;8.732;2023-03-01T01:14:28;23.37;;;14.33;;
15944;SDS011;30172;48.832;8.732;2023-03-01T01:16:53;22.50;;;14.67;;
15944;SDS011;30172;48.832;8.732;2023-03-01T01:19:18;25.40;;;14.83;;
15944;SDS011;30172;48.832;8.732;2023-03-01T01:21:44;25.30;;;15.10;;
15944;SDS011;30172;48.832;8.732;2023-03-01T01:24:09;23.07;;;14.30;;
15944;SDS011;30172;48.832;8.732;2023-03-01T01:26:35;24.37;;;14.43;;
15944;SDS011;30172;48.832;8.732;2023-03-01T01:29:01;22.80;;;14.73;;
15944;SDS011;30172;48.832;8.732;2023-03-01T01:31:28;22.37;;;14.10;;
15944;SDS011;30172;48.832;8.732;2023-03-01T01:33:54;19.63;;;13.73;;
15944;SDS011;30172;48.832;8.732;2023-03-01T01:36:20;21.33;;;15.70;;
15944;SDS011;30172;48.832;8.732;2023-03-01T01:38:45;22.87;;;14.10;;
15944;SDS011;30172;48.832;8.732;2023-03-01T01:41:11;22.13;;;13.97;;
15944;SDS011;30172;48.832;8.732;2023-03-01T01:43:41;23.67;;;15.57;;
15944;SDS011;30172;48.832;8.732;2023-03-01T01:46:42;22.93;;;15.23;;
15944;SDS011;30172;48.832;8.732;2023-03-01T01:51:45;22.37;;;15.17;;
15944;SDS011;30172;48.832;8.732;2023-03-01T01:54:25;21.90;;;15.13;;
15944;SDS011;30172;48.832;8.732;2023-03-01T01:57:00;23.93;;;15.70;;
15944;SDS011;30172;48.832;8.732;2023-03-01T01:59:27;24.07;;;15.70;;
15944;SDS011;30172;48.832;8.732;2023-03-01T02:01:54;24.60;;;14.73;;
15944;SDS011;30172;48.832;8.732;2023-03-01T02:04:19;23.90;;;15.80;;
15944;SDS011;30172;48.832;8.732;2023-03-01T02:06:48;22.93;;;15.07;;
15944;SDS011;30172;48.832;8.732;2023-03-01T02:09:16;23.80;;;15.37;;
15944;SDS011;30172;48.832;8.732;2023-03-01T02:11:43;24.87;;;15.17;;
15944;SDS011;30172;48.832;8.732;2023-03-01T02:14:09;23.27;;;15.57;;
15944;SDS011;30172;48.832;8.732;2023-03-01T02:16:34;24.27;;;14.87;;
15944;SDS011;30172;48.832;8.732;2023-03-01T02:18:59;24.50;;;15.17;;
15944;SDS011;30172;48.832;8.732;2023-03-01T02:21:30;24.37;;;14.67;;
15944;SDS011;30172;48.832;8.732;2023-03-01T02:24:01;21.47;;;14.60;;
15944;SDS011;30172;48.832;8.732;2023-03-01T02:26:40;26.90;;;15.90;;
15944;SDS011;30172;48.832;8.732;2023-03-01T02:29:08;23.83;;;15.63;;
15944;SDS011;30172;48.832;8.732;2023-03-01T02:31:33;23.13;;;14.73;;
15944;SDS011;30172;48.832;8.732;2023-03-01T02:34:08;24.20;;;15.23;;
15944;SDS011;30172;48.832;8.732;2023-03-01T02:36:37;25.03;;;15.40;;
15944;SDS011;30172;48.832;8.732;2023-03-01T02:39:06;25.00;;;15.73;;
15944;SDS011;30172;48.832;8.732;2023-03-01T02:41:35;25.60;;;15.70;;
15944;SDS011;30172;48.832;8.732;2023-03-01T02:44:03;27.60;;;16.20;;
15944;SDS011;30172;48.832;8.732;2023-03-01T02:46:28;27.90;;;16.90;;
15944;SDS011;30172;48.832;8.732;2023-03-01T02:48:55;24.13;;;16.10;;
15944;SDS011;30172;48.832;8.732;2023-03-01T02:54:17;23.87;;;14.97;;
15944;SDS011;30172;48.832;8.732;2023-03-01T02:56:48;28.17;;;16.87;;
15944;SDS011;30172;48.832;8.732;2023-03-01T02:59:14;24.70;;;16.10;;
15944;SDS011;30172;48.832;8.732;2023-03-01T03:01:41;26.40;;;16.77;;
15944;SDS011;30172;48.832;8.732;2023-03-01T03:04:07;24.37;;;15.80;;
15944;SDS011;30172;48.832;8.732;2023-03-01T03:06:35;22.90;;;15.13;;
15944;SDS011;30172;48.832;8.732;2023-03-01T03:09:01;28.63;;;16.37;;
15944;SDS011;30172;48.832;8.732;2023-03-01T03:11:26;23.63;;;15.37;;
15944;SDS011;30172;48.832;8.732;2023-03-01T03:13:52;25.77;;;16.00;;
15944;SDS011;30172;48.832;8.732;2023-03-01T03:16:18;24.27;;;15.83;;
15944;SDS011;30172;48.832;8.732;2023-03-01T03:18:44;28.67;;;16.83;;
15944;SDS011;30172;48.832;8.732;2023-03-01T03:21:10;25.67;;;15.87;;
15944;SDS011;30172;48.832;8.732;2023-03-01T03:23:36;25.10;;;15.93;;
15944;SDS011;30172;48.832;8.732;2023-03-01T03:26:02;26.97;;;18.77;;
15944;SDS011;30172;48.832;8.732;2023-03-01T03:28:29;23.73;;;15.87;;
15944;SDS011;30172;48.832;8.732;2023-03-01T03:30:55;27.87;;;16.93;;
15944;SDS011;30172;48.832;8.732;2023-03-01T03:33:21;23.83;;;15.57;;
15944;SDS011;30172;48.832;8.732;2023-03-01T03:35:47;25.80;;;17.17;;
15944;SDS011;30172;48.832;8.732;2023-03-01T03:38:13;26.43;;;17.23;;
15944;SDS011;30172;48.832;8.732;2023-03-01T03:40:51;25.37;;;18.00;;
15944;SDS011;30172;48.832;8.732;2023-03-01T03:43:28;26.40;;;16.77;;
15944;SDS011;30172;48.832;8.732;2023-03-01T03:45:53;26.10;;;16.77;;
15944;SDS011;30172;48.832;8.732;2023-03-01T03:48:19;29.13;;;17.20;;
15944;SDS011;30172;48.832;8.732;2023-03-01T03:50:48;29.07;;;17.50;;
15944;SDS011;30172;48.832;8.732;2023-03-01T03:53:18;28.43;;;17.13;;
15944;SDS011;30172;48.832;8.732;2023-03-01T03:55:44;25.73;;;17.13;;
15944;SDS011;30172;48.832;8.732;2023-03-01T03:58:10;26.67;;;17.10;;
15944;SDS011;30172;48.832;8.732;2023-03-01T04:00:36;26.50;;;17.80;;
15944;SDS011;30172;48.832;8.732;2023-03-01T04:03:03;29.03;;;16.93;;
15944;SDS011;30172;48.832;8.732;2023-03-01T04:05:29;27.67;;;17.27;;
15944;SDS011;30172;48.832;8.732;2023-03-01T04:07:54;28.00;;;16.60;;
15944;SDS011;30172;48.832;8.732;2023-03-01T04:10:26;26.87;;;17.37;;
15944;SDS011;30172;48.832;8.732;2023-03-01T04:12:52;24.87;;;16.93;;
15944;SDS011;30172;48.832;8.732;2023-03-01T04:15:17;26.80;;;16.77;;
15944;SDS011;30172;48.832;8.732;2023-03-01T04:17:44;27.57;;;17.87;;
15944;SDS011;30172;48.832;8.732;2023-03-01T04:20:11;26.50;;;17.67;;
15944;SDS011;30172;48.832;8.732;2023-03-01T04:22:50;29.07;;;17.67;;
15944;SDS011;30172;48.832;8.732;2023-03-01T04:25:22;29.60;;;18.90;;
15944;SDS011;30172;48.832;8.732;2023-03-01T04:27:47;23.37;;;16.97;;
15944;SDS011;30172;48.832;8.732;2023-03-01T04:30:13;27.83;;;17.43;;
15944;SDS011;30172;48.832;8.732;2023-03-01T04:32:38;27.33;;;17.40;;
15944;SDS011;30172;48.832;8.732;2023-03-01T04:35:03;25.57;;;17.27;;
15944;SDS011;30172;48.832;8.732;2023-03-01T04:37:29;30.20;;;18.03;;
15944;SDS011;30172;48.832;8.732;2023-03-01T04:39:54;29.30;;;17.90;;
15944;SDS011;30172;48.832;8.732;2023-03-01T04:42:20;26.73;;;17.35;;
15944;SDS011;30172;48.832;8.732;2023-03-01T04:44:45;28.90;;;18.20;;
15944;SDS011;30172;48.832;8.732;2023-03-01T04:47:11;28.10;;;18.07;;
15944;SDS011;30172;48.832;8.732;2023-03-01T04:49:36;27.37;;;17.90;;
15944;SDS011;30172;48.832;8.732;2023-03-01T04:52:02;25.77;;;17.20;;
15944;SDS011;30172;48.832;8.732;2023-03-01T04:54:28;28.33;;;18.57;;
15944;SDS011;30172;48.832;8.732;2023-03-01T04:56:54;27.73;;;18.23;;
15944;SDS011;30172;48.832;8.732;2023-03-01T04:59:19;29.20;;;19.03;;
15944;SDS011;30172;48.832;8.732;2023-03-01T05:01:47;30.23;;;18.17;;
15944;SDS011;30172;48.832;8.732;2023-03-01T05:04:13;28.30;;;18.23;;
15944;SDS011;30172;48.832;8.732;2023-03-01T05:06:38;28.63;;;18.50;;
15944;SDS011;30172;48.832;8.732;2023-03-01T05:09:04;26.47;;;17.30;;
15944;SDS011;30172;48.832;8.732;2023-03-01T05:11:30;25.60;;;18.23;;
15944;SDS011;30172;48.832;8.732;2023-03-01T05:13:58;31.50;;;19.47;;
15944;SDS011;30172;48.832;8.732;2023-03-01T05:16:24;30.40;;;18.13;;
15944;SDS011;30172;48.832;8.732;2023-03-01T05:18:49;28.03;;;17.80;;
15944;SDS011;30172;48.832;8.732;2023-03-01T05:21:16;27.93;;;17.90;;
15944;SDS011;30172;48.832;8.732;2023-03-01T05:23:41;28.10;;;17.40;;
15944;SDS011;30172;48.832;8.732;2023-03-01T05:26:07;29.27;;;18.10;;
15944;SDS011;30172;48.832;8.732;2023-03-01T05:28:33;30.57;;;19.43;;
15944;SDS011;30172;48.832;8.732;2023-03-01T05:30:59;30.03;;;18.93;;
15944;SDS011;30172;48.832;8.732;2023-03-01T05:33:24;30.73;;;19.13;;
15944;SDS011;30172;48.832;8.732;2023-03-01T05:35:50;28.47;;;18.20;;
15944;SDS011;30172;48.832;8.732;2023-03-01T05:38:16;28.27;;;18.77;;
15944;SDS011;30172;48.832;8.732;2023-03-01T05:40:42;30.60;;;18.90;;
15944;SDS011;30172;48.832;8.732;2023-03-01T05:43:09;33.07;;;19.17;;
15944;SDS011;30172;48.832;8.732;2023-03-01T05:45:35;43.13;;;26.07;;
15944;SDS011;30172;48.832;8.732;2023-03-01T05:48:01;34.73;;;20.33;;
15944;SDS011;30172;48.832;8.732;2023-03-01T05:50:28;41.63;;;24.77;;
15944;SDS011;30172;48.832;8.732;2023-03-01T05:53:07;31.07;;;19.37;;
15944;SDS011;30172;48.832;8.732;2023-03-01T05:55:36;29.83;;;18.83;;
15944;SDS011;30172;48.832;8.732;2023-03-01T05:58:02;30.57;;;19.20;;
15944;SDS011;30172;48.832;8.732;2023-03-01T06:00:30;31.07;;;19.13;;
15944;SDS011;30172;48.832;8.732;2023-03-01T06:02:56;30.63;;;18.63;;
15944;SDS011;30172;48.832;8.732;2023-03-01T06:05:22;30.27;;;19.00;;
15944;SDS011;30172;48.832;8.732;2023-03-01T06:07:48;26.50;;;17.57;;
15944;SDS011;30172;48.832;8.732;2023-03-01T06:10:13;25.47;;;17.67;;
15944;SDS011;30172;48.832;8.732;2023-03-01T06:12:39;26.27;;;18.03;;
15944;SDS011;30172;48.832;8.732;2023-03-01T06:15:06;30.97;;;18.70;;
15944;SDS011;30172;48.832;8.732;2023-03-01T06:17:35;29.43;;;18.63;;
15944;SDS011;30172;48.832;8.732;2023-03-01T06:20:03;27.47;;;18.20;;
15944;SDS011;30172;48.832;8.732;2023-03-01T06:22:49;27.80;;;18.27;;
15944;SDS011;30172;48.832;8.732;2023-03-01T06:25:15;26.47;;;18.00;;
15944;SDS011;30172;48.832;8.732;2023-03-01T06:27:43;28.77;;;18.87;;
15944;SDS011;30172;48.832;8.732;2023-03-01T06:30:09;31.40;;;18.27;;
15944;SDS011;30172;48.832;8.732;2023-03-01T06:32:36;27.47;;;17.90;;
15944;SDS011;30172;48.832;8.732;2023-03-01T06:35:02;31.13;;;19.23;;
15944;SDS011;30172;48.832;8.732;2023-03-01T06:37:29;27.57;;;19.20;;
15944;SDS011;30172;48.832;8.732;2023-03-01T06:39:54;30.23;;;18.30;;
15944;SDS011;30172;48.832;8.732;2023-03-01T06:42:19;27.70;;;18.73;;
15944;SDS011;30172;48.832;8.732;2023-03-01T06:44:45;28.73;;;17.83;;
15944;SDS011;30172;48.832;8.732;2023-03-01T06:47:10;30.80;;;18.23;;
15944;SDS011;30172;48.832;8.732;2023-03-01T06:49:36;32.60;;;19.17;;
15944;SDS011;30172;48.832;8.732;2023-03-01T06:52:01;30.47;;;18.50;;
15944;SDS011;30172;48.832;8.732;2023-03-01T06:54:26;34.97;;;19.83;;
15944;SDS011;30172;48.832;8.732;2023-03-01T06:56:52;27.53;;;18.57;;
15944;SDS011;30172;48.832;8.732;2023-03-01T06:59:17;27.73;;;18.10;;
15944;SDS011;30172;48.832;8.732;2023-03-01T07:01:43;28.20;;;17.77;;
15944;SDS011;30172;48.832;8.732;2023-03-01T07:04:08;30.93;;;18.30;;
15944;SDS011;30172;48.832;8.732;2023-03-01T07:06:34;28.00;;;17.80;;
15944;SDS011;30172;48.832;8.732;2023-03-01T07:09:00;29.07;;;19.40;;
15944;SDS011;30172;48.832;8.732;2023-03-01T07:11:25;29.00;;;18.90;;
15944;SDS011;30172;48.832;8.732;2023-03-01T07:13:50;32.87;;;19.60;;
15944;SDS011;30172;48.832;8.732;2023-03-01T07:16:15;26.23;;;16.93;;
15944;SDS011;30172;48.832;8.732;2023-03-01T07:18:41;26.40;;;17.53;;
15944;SDS011;30172;48.832;8.732;2023-03-01T07:21:07;31.20;;;19.40;;
15944;SDS011;30172;48.832;8.732;2023-03-01T07:23:33;27.70;;;18.50;;
15944;SDS011;30172;48.832;8.732;2023-03-01T07:25:59;44.87;;;24.80;;
15944;SDS011;30172;48.832;8.732;2023-03-01T07:28:26;28.47;;;18.53;;
15944;SDS011;30172;48.832;8.732;2023-03-01T07:30:52;26.90;;;17.90;;
15944;SDS011;30172;48.832;8.732;2023-03-01T07:33:17;30.47;;;18.77;;
15944;SDS011;30172;48.832;8.732;2023-03-01T07:35:42;30.60;;;18.80;;
15944;SDS011;30172;48.832;8.732;2023-03-01T07:38:08;28.57;;;18.23;;
15944;SDS011;30172;48.832;8.732;2023-03-01T07:40:33;30.03;;;19.00;;
15944;SDS011;30172;48.832;8.732;2023-03-01T07:42:59;30.43;;;19.27;;
15944;SDS011;30172;48.832;8.732;2023-03-01T07:45:26;30.57;;;18.70;;
15944;SDS011;30172;48.832;8.732;2023-03-01T07:47:52;57.03;;;28.43;;
15944;SDS011;30172;48.832;8.732;2023-03-01T07:50:17;32.20;;;19.80;;
15944;SDS011;30172;48.832;8.732;2023-03-01T07:52:46;34.20;;;19.30;;
15944;SDS011;30172;48.832;8.732;2023-03-01T07:55:13;34.50;;;19.57;;
15944;SDS011;30172;48.832;8.732;2023-03-01T07:57:38;30.87;;;19.90;;
15944;SDS011;30172;48.832;8.732;2023-03-01T08:00:04;27.60;;;18.57;;
15944;SDS011;30172;48.832;8.732;2023-03-01T08:02:30;30.07;;;19.63;;
15944;SDS011;30172;48.832;8.732;2023-03-01T08:04:56;29.27;;;18.83;;
15944;SDS011;30172;48.832;8.732;2023-03-01T08:07:21;32.70;;;20.10;;
15944;SDS011;30172;48.832;8.732;2023-03-01T08:09:46;30.33;;;19.33;;
15944;SDS011;30172;48.832;8.732;2023-03-01T08:12:11;31.50;;;18.27;;
15944;SDS011;30172;48.832;8.732;2023-03-01T08:14:37;27.30;;;17.83;;
15944;SDS011;30172;48.832;8.732;2023-03-01T08:17:02;32.37;;;19.40;;
15944;SDS011;30172;48.832;8.732;2023-03-01T08:19:28;28.87;;;18.10;;
15944;SDS011;30172;48.832;8.732;2023-03-01T08:21:54;31.10;;;19.43;;
15944;SDS011;30172;48.832;8.732;2023-03-01T08:24:19;31.90;;;18.93;;
15944;SDS011;30172;48.832;8.732;2023-03-01T08:26:44;29.70;;;18.43;;
15944;SDS011;30172;48.832;8.732;2023-03-01T08:29:10;30.40;;;19.17;;
15944;SDS011;30172;48.832;8.732;2023-03-01T08:31:36;30.03;;;19.20;;
15944;SDS011;30172;48.832;8.732;2023-03-01T08:34:04;28.37;;;18.63;;
15944;SDS011;30172;48.832;8.732;2023-03-01T08:36:34;33.10;;;20.40;;
15944;SDS011;30172;48.832;8.732;2023-03-01T08:39:02;28.43;;;18.77;;
15944;SDS011;30172;48.832;8.732;2023-03-01T08:41:27;31.10;;;19.43;;
15944;SDS011;30172;48.832;8.732;2023-03-01T08:43:53;29.77;;;20.07;;
15944;SDS011;30172;48.832;8.732;2023-03-01T08:46:23;31.73;;;19.53;;
15944;SDS011;30172;48.832;8.732;2023-03-01T08:48:52;30.83;;;18.90;;
15944;SDS011;30172;48.832;8.732;2023-03-01T08:51:18;32.27;;;20.30;;
15944;SDS011;30172;48.832;8.732;2023-03-01T08:53:44;30.80;;;18.90;;
15944;SDS011;30172;48.832;8.732;2023-03-01T08:56:10;28.70;;;18.50;;
15944;SDS011;30172;48.832;8.732;2023-03-01T08:58:35;30.80;;;18.93;;
15944;SDS011;30172;48.832;8.732;2023-03-01T09:01:06;38.70;;;21.23;;
15944;SDS011;30172;48.832;8.732;2023-03-01T09:03:32;31.60;;;19.83;;
15944;SDS011;30172;48.832;8.732;2023-03-01T09:06:01;30.57;;;18.80;;
15944;SDS011;30172;48.832;8.732;2023-03-01T09:08:27;29.50;;;19.77;;
15944;SDS011;30172;48.832;8.732;2023-03-01T09:10:52;32.47;;;19.03;;
15944;SDS011;30172;48.832;8.732;2023-03-01T09:13:18;29.00;;;19.23;;
15944;SDS011;30172;48.832;8.732;2023-03-01T09:15:43;37.53;;;21.77;;
15944;SDS011;30172;48.832;8.732;2023-03-01T09:18:08;32.70;;;20.40;;
15944;SDS011;30172;48.832;8.732;2023-03-01T09:20:33;31.17;;;20.40;;
15944;SDS011;30172;48.832;8.732;2023-03-01T09:22:59;33.47;;;21.20;;
15944;SDS011;30172;48.832;8.732;2023-03-01T09:25:24;32.93;;;21.13;;
15944;SDS011;30172;48.832;8.732;2023-03-01T09:27:53;32.20;;;20.67;;
15944;SDS011;30172;48.832;8.732;2023-03-01T09:30:18;31.43;;;20.20;;
15944;SDS011;30172;48.832;8.732;2023-03-01T09:32:44;35.30;;;21.43;;
15944;SDS011;30172;48.832;8.732;2023-03-01T09:35:10;28.17;;;19.53;;
15944;SDS011;30172;48.832;8.732;2023-03-01T09:37:36;32.27;;;19.13;;
15944;SDS011;30172;48.832;8.732;2023-03-01T09:40:12;32.30;;;21.73;;
15944;SDS011;30172;48.832;8.732;2023-03-01T09:42:45;30.33;;;18.77;;
15944;SDS011;30172;48.832;8.732;2023-03-01T09:45:18;31.83;;;19.93;;
15944;SDS011;30172;48.832;8.732;2023-03-01T09:47:49;31.13;;;19.80;;
15944;SDS011;30172;48.832;8.732;2023-03-01T09:50:15;28.20;;;19.03;;
15944;SDS011;30172;48.832;8.732;2023-03-01T09:52:43;28.57;;;19.20;;
15944;SDS011;30172;48.832;8.732;2023-03-01T09:55:13;31.33;;;19.63;;
15944;SDS011;30172;48.832;8.732;2023-03-01T09:57:54;28.17;;;19.30;;
15944;SDS011;30172;48.832;8.732;2023-03-01T10:00:33;24.10;;;18.60;;
15944;SDS011;30172;48.832;8.732;2023-03-01T10:03:16;30.30;;;19.73;;
15944;SDS011;30172;48.832;8.732;2023-03-01T10:06:02;30.37;;;19.80;;
15944;SDS011;30172;48.832;8.732;2023-03-01T10:08:30;30.93;;;19.53;;
15944;SDS011;30172;48.832;8.732;2023-03-01T10:11:03;28.63;;;19.33;;
15944;SDS011;30172;48.832;8.732;2023-03-01T10:13:44;30.80;;;18.93;;
15944;SDS011;30172;48.832;8.732;2023-03-01T10:19:05;32.17;;;18.90;;
15944;SDS011;30172;48.832;8.732;2023-03-01T10:21:39;30.60;;;19.20;;
15944;SDS011;30172;48.832;8.732;2023-03-01T10:24:10;30.37;;;19.33;;
15944;SDS011;30172;48.832;8.732;2023-03-01T10:29:13;30.73;;;20.43;;
15944;SDS011;30172;48.832;8.732;2023-03-01T10:34:31;27.67;;;18.40;;
15944;SDS011;30172;48.832;8.732;2023-03-01T10:37:04;26.70;;;18.03;;
15944;SDS011;30172;48.832;8.732;2023-03-01T10:39:34;29.87;;;19.07;;
15944;SDS011;30172;48.832;8.732;2023-03-01T10:42:04;27.37;;;18.47;;
15944;SDS011;30172;48.832;8.732;2023-03-01T10:47:02;28.57;;;19.93;;
15944;SDS011;30172;48.832;8.732;2023-03-01T10:49:27;26.50;;;18.90;;
15944;SDS011;30172;48.832;8.732;2023-03-01T10:51:53;29.87;;;19.53;;
15944;SDS011;30172;48.832;8.732;2023-03-01T10:54:27;30.30;;;18.67;;
15944;SDS011;30172;48.832;8.732;2023-03-01T10:57:01;26.60;;;18.00;;
15944;SDS011;30172;48.832;8.732;2023-03-01T10:59:33;31.57;;;18.93;;
15944;SDS011;30172;48.832;8.732;2023-03-01T11:02:04;29.13;;;18.70;;
15944;SDS011;30172;48.832;8.732;2023-03-01T11:07:24;29.23;;;18.03;;
15944;SDS011;30172;48.832;8.732;2023-03-01T11:09:49;27.77;;;18.23;;
15944;SDS011;30172;48.832;8.732;2023-03-01T11:12:15;25.67;;;18.27;;
15944;SDS011;30172;48.832;8.732;2023-03-01T11:14:48;30.20;;;19.20;;
15944;SDS011;30172;48.832;8.732;2023-03-01T11:17:17;30.63;;;19.23;;
15944;SDS011;30172;48.832;8.732;2023-03-01T11:20:13;28.30;;;19.33;;
15944;SDS011;30172;48.832;8.732;2023-03-01T11:22:45;30.50;;;18.83;;
15944;SDS011;30172;48.832;8.732;2023-03-01T11:25:13;29.20;;;18.83;;
15944;SDS011;30172;48.832;8.732;2023-03-01T11:27:43;28.77;;;19.10;;
15944;SDS011;30172;48.832;8.732;2023-03-01T11:32:42;29.13;;;19.80;;
15944;SDS011;30172;48.832;8.732;2023-03-01T11:35:14;28.17;;;18.57;;
15944;SDS011;30172;48.832;8.732;2023-03-01T11:40:30;26.17;;;17.70;;
15944;SDS011;30172;48.832;8.732;2023-03-01T11:57:26;27.47;;;18.67;;
15944;SDS011;30172;48.832;8.732;2023-03-01T12:00:53;33.57;;;22.87;;
15944;SDS011;30172;48.832;8.732;2023-03-01T12:10:53;39.00;;;24.90;;
15944;SDS011;30172;48.832;8.732;2023-03-01T12:16:28;31.13;;;20.90;;
15944;SDS011;30172;48.832;8.732;2023-03-01T12:19:20;24.40;;;16.60;;
15944;SDS011;30172;48.832;8.732;2023-03-01T12:27:20;26.80;;;18.00;;
15944;SDS011;30172;48.832;8.732;2023-03-01T12:30:04;29.07;;;18.30;;
15944;SDS011;30172;48.832;8.732;2023-03-01T12:32:40;26.37;;;17.93;;
15944;SDS011;30172;48.832;8.732;2023-03-01T12:35:17;28.30;;;17.90;;
15944;SDS011;30172;48.832;8.732;2023-03-01T12:46:34;25.43;;;17.63;;
15944;SDS011;30172;48.832;8.732;2023-03-01T12:49:10;27.47;;;19.00;;
15944;SDS011;30172;48.832;8.732;2023-03-01T12:51:38;26.03;;;18.00;;
15944;SDS011;30172;48.832;8.732;2023-03-01T12:54:26;31.23;;;19.53;;
15944;SDS011;30172;48.832;8.732;2023-03-01T12:56:53;30.87;;;20.10;;
15944;SDS011;30172;48.832;8.732;2023-03-01T12:59:24;23.70;;;18.27;;
15944;SDS011;30172;48.832;8.732;2023-03-01T13:04:29;28.90;;;18.53;;
15944;SDS011;30172;48.832;8.732;2023-03-01T13:17:46;26.60;;;17.97;;
15944;SDS011;30172;48.832;8.732;2023-03-01T13:20:13;27.20;;;18.77;;
15944;SDS011;30172;48.832;8.732;2023-03-01T13:22:39;29.70;;;19.27;;
15944;SDS011;30172;48.832;8.732;2023-03-01T13:25:13;23.37;;;15.90;;
15944;SDS011;30172;48.832;8.732;2023-03-01T13:27:40;27.03;;;17.63;;
15944;SDS011;30172;48.832;8.732;2023-03-01T13:30:12;27.20;;;17.17;;
15944;SDS011;30172;48.832;8.732;2023-03-01T13:36:11;24.20;;;17.40;;
15944;SDS011;30172;48.832;8.732;2023-03-01T13:39:44;28.00;;;18.50;;
15944;SDS011;30172;48.832;8.732;2023-03-01T13:41:57;26.53;;;18.57;;
15944;SDS011;30172;48.832;8.732;2023-03-01T13:49:56;27.57;;;17.97;;
15944;SDS011;30172;48.832;8.732;2023-03-01T13:55:16;30.13;;;18.57;;
15944;SDS011;30172;48.832;8.732;2023-03-01T13:57:45;28.13;;;18.17;;
15944;SDS011;30172;48.832;8.732;2023-03-01T14:00:26;28.47;;;18.87;;
15944;SDS011;30172;48.832;8.732;2023-03-01T14:03:10;33.93;;;19.53;;
15944;SDS011;30172;48.832;8.732;2023-03-01T14:05:35;27.70;;;19.17;;
15944;SDS011;30172;48.832;8.732;2023-03-01T14:08:02;28.17;;;18.93;;
15944;SDS011;30172;48.832;8.732;2023-03-01T14:10:36;23.23;;;17.73;;
15944;SDS011;30172;48.832;8.732;2023-03-01T14:13:12;28.47;;;19.33;;
15944;SDS011;30172;48.832;8.732;2023-03-01T14:16:14;28.63;;;18.27;;
15944;SDS011;30172;48.832;8.732;2023-03-01T14:19:03;25.33;;;18.10;;
15944;SDS011;30172;48.832;8.732;2023-03-01T14:21:37;29.63;;;20.40;;
15944;SDS011;30172;48.832;8.732;2023-03-01T14:24:03;30.30;;;19.13;;
15944;SDS011;30172;48.832;8.732;2023-03-01T14:26:28;26.20;;;19.00;;
15944;SDS011;30172;48.832;8.732;2023-03-01T14:28:54;26.90;;;18.97;;
15944;SDS011;30172;48.832;8.732;2023-03-01T14:31:29;26.67;;;19.13;;
15944;SDS011;30172;48.832;8.732;2023-03-01T14:33:58;26.10;;;19.13;;
15944;SDS011;30172;48.832;8.732;2023-03-01T14:36:28;28.30;;;19.10;;
15944;SDS011;30172;48.832;8.732;2023-03-01T14:38:54;28.43;;;19.27;;
15944;SDS011;30172;48.832;8.732;2023-03-01T14:41:20;29.07;;;18.60;;
15944;SDS011;30172;48.832;8.732;2023-03-01T14:44:30;27.60;;;18.57;;
15944;SDS011;30172;48.832;8.732;2023-03-01T14:46:51;25.40;;;18.57;;
15944;SDS011;30172;48.832;8.732;2023-03-01T14:49:19;26.23;;;18.33;;
15944;SDS011;30172;48.832;8.732;2023-03-01T14:52:07;32.33;;;19.60;;
15944;SDS011;30172;48.832;8.732;2023-03-01T14:54:43;26.77;;;18.20;;
15944;SDS011;30172;48.832;8.732;2023-03-01T14:57:18;27.33;;;18.37;;
15944;SDS011;30172;48.832;8.732;2023-03-01T14:59:46;28.63;;;19.67;;
15944;SDS011;30172;48.832;8.732;2023-03-01T15:02:13;27.20;;;18.93;;
15944;SDS011;30172;48.832;8.732;2023-03-01T15:04:49;25.10;;;18.53;;
15944;SDS011;30172;48.832;8.732;2023-03-01T15:07:16;25.03;;;17.67;;
15944;SDS011;30172;48.832;8.732;2023-03-01T15:09:42;25.67;;;16.83;;
15944;SDS011;30172;48.832;8.732;2023-03-01T15:12:24;27.83;;;20.03;;
15944;SDS011;30172;48.832;8.732;2023-03-01T15:14:57;24.33;;;17.83;;
15944;SDS011;30172;48.832;8.732;2023-03-01T15:17:28;31.33;;;18.70;;
15944;SDS011;30172;48.832;8.732;2023-03-01T15:20:04;27.27;;;18.83;;
15944;SDS011;30172;48.832;8.732;2023-03-01T15:22:31;27.37;;;18.67;;
15944;SDS011;30172;48.832;8.732;2023-03-01T15:24:56;33.80;;;22.03;;
15944;SDS011;30172;48.832;8.732;2023-03-01T15:27:23;29.20;;;20.57;;
15944;SDS011;30172;48.832;8.732;2023-03-01T15:29:53;26.50;;;18.67;;
15944;SDS011;30172;48.832;8.732;2023-03-01T15:32:34;27.60;;;19.20;;
15944;SDS011;30172;48.832;8.732;2023-03-01T15:35:32;29.63;;;18.87;;
15944;SDS011;30172;48.832;8.732;2023-03-01T15:37:59;27.77;;;18.33;;
15944;SDS011;30172;48.832;8.732;2023-03-01T15:40:29;25.03;;;18.60;;
15944;SDS011;30172;48.832;8.732;2023-03-01T15:43:01;26.40;;;19.03;;
15944;SDS011;30172;48.832;8.732;2023-03-01T15:45:31;23.10;;;17.57;;
15944;SDS011;30172;48.832;8.732;2023-03-01T15:48:05;29.73;;;18.70;;
15944;SDS011;30172;48.832;8.732;2023-03-01T15:50:57;25.33;;;17.23;;
15944;SDS011;30172;48.832;8.732;2023-03-01T15:53:23;27.07;;;18.83;;
15944;SDS011;30172;48.832;8.732;2023-03-01T15:55:49;25.17;;;18.70;;
15944;SDS011;30172;48.832;8.732;2023-03-01T15:58:16;27.43;;;18.07;;
15944;SDS011;30172;48.832;8.732;2023-03-01T16:00:45;26.30;;;17.87;;